createdAt,value
2018-04-09T00:00:01.710Z,23.20
2018-04-09T00:01:01.715Z,26.90
2018-04-09T00:02:01.723Z,22.60
2018-04-09T00:03:01.738Z,23.40
2018-04-09T00:04:01.739Z,23.80
2018-04-09T00:05:01.755Z,19.70
2018-04-09T00:06:01.800Z,23.50
2018-04-09T00:07:01.763Z,19.50
2018-04-09T00:08:01.757Z,22.00
2018-04-09T00:09:01.771Z,24.60
2018-04-09T00:10:01.771Z,22.30
2018-04-09T00:11:01.785Z,29.20
2018-04-09T00:12:01.782Z,26.20
2018-04-09T00:13:01.796Z,24.50
2018-04-09T00:14:01.795Z,28.00
2018-04-09T00:15:01.804Z,21.30
2018-04-09T00:16:01.816Z,22.20
2018-04-09T00:17:01.832Z,21.60
2018-04-09T00:18:01.829Z,22.40
2018-04-09T00:19:01.827Z,23.30
2018-04-09T00:20:01.833Z,23.70
2018-04-09T00:21:01.846Z,22.40
2018-04-09T00:22:01.851Z,27.00
2018-04-09T00:23:01.858Z,22.40
2018-04-09T00:24:01.867Z,23.40
2018-04-09T00:25:01.865Z,22.60
2018-04-09T00:26:01.873Z,24.10
2018-04-09T00:27:01.883Z,21.00
2018-04-09T00:28:01.885Z,23.30
2018-04-09T00:29:01.895Z,24.10
2018-04-09T00:30:01.900Z,24.80
2018-04-09T00:31:02.447Z,24.30
2018-04-09T00:32:01.910Z,24.00
2018-04-09T00:33:01.921Z,24.20
2018-04-09T00:34:01.920Z,28.20
2018-04-09T00:35:01.934Z,22.40
2018-04-09T00:36:01.939Z,22.00
2018-04-09T00:37:01.940Z,24.30
2018-04-09T00:38:01.947Z,22.10
2018-04-09T00:39:01.958Z,22.90
2018-04-09T00:40:01.958Z,22.80
2018-04-09T00:41:01.972Z,21.80
2018-04-09T00:42:01.974Z,25.80
2018-04-09T00:43:01.987Z,21.60
2018-04-09T00:44:01.994Z,26.20
2018-04-09T00:45:02.007Z,24.40
2018-04-09T00:46:02.010Z,24.50
2018-04-09T00:47:02.018Z,26.40
2018-04-09T00:48:02.021Z,21.60
2018-04-09T00:49:02.032Z,23.00
2018-04-09T00:50:02.020Z,24.80
2018-04-09T00:51:02.028Z,25.60
2018-04-09T00:52:02.030Z,24.80
2018-04-09T00:53:02.050Z,26.70
2018-04-09T00:54:02.044Z,23.00
2018-04-09T00:55:02.056Z,23.00
2018-04-09T00:56:02.062Z,23.00
2018-04-09T00:58:02.065Z,21.50
2018-04-09T01:00:02.079Z,19.10
2018-04-09T01:01:02.086Z,25.90
2018-04-09T01:02:02.095Z,21.10
2018-04-09T01:03:02.100Z,23.30
2018-04-09T01:04:02.111Z,23.30
2018-04-09T01:05:02.112Z,26.10
2018-04-09T01:09:02.148Z,21.00
2018-04-09T01:10:02.140Z,21.40
2018-04-09T01:11:02.153Z,23.50
2018-04-09T01:12:02.154Z,25.10
2018-04-09T01:13:02.172Z,23.20
2018-04-09T01:17:02.204Z,24.10
2018-04-09T01:18:02.207Z,21.60
2018-04-09T01:19:02.201Z,23.80
2018-04-09T01:20:02.203Z,25.20
2018-04-09T01:21:02.214Z,23.90
2018-04-09T01:22:02.222Z,23.40
2018-04-09T01:23:02.229Z,26.60
2018-04-09T01:24:02.228Z,20.30
2018-04-09T01:25:02.240Z,24.20
2018-04-09T01:26:02.249Z,23.80
2018-04-09T01:27:02.247Z,24.30
2018-04-09T01:28:02.258Z,23.50
2018-04-09T01:29:02.260Z,22.10
2018-04-09T01:30:02.270Z,28.40
2018-04-09T01:31:02.273Z,30.90
2018-04-09T01:32:02.288Z,28.50
2018-04-09T01:33:02.282Z,26.10
2018-04-09T01:34:02.293Z,25.80
2018-04-09T01:35:02.336Z,24.50
2018-04-09T01:36:02.310Z,23.10
2018-04-09T01:37:02.306Z,24.50
2018-04-09T01:38:02.314Z,23.50
2018-04-09T01:39:02.311Z,23.70
2018-04-09T01:40:02.323Z,21.30
2018-04-09T01:41:02.344Z,25.10
2018-04-09T01:42:02.335Z,24.60
2018-04-09T01:43:02.339Z,24.90
2018-04-09T01:44:02.344Z,24.70
2018-04-09T01:45:02.354Z,23.20
2018-04-09T01:46:02.357Z,22.30
2018-04-09T01:47:02.361Z,22.60
2018-04-09T01:48:02.375Z,29.70
2018-04-09T01:49:02.380Z,23.10
2018-04-09T01:50:02.379Z,21.60
2018-04-09T01:51:02.387Z,25.90
2018-04-09T01:52:02.397Z,21.40
2018-04-09T01:53:02.400Z,25.90
2018-04-09T01:54:02.410Z,24.60
2018-04-09T01:55:02.408Z,22.40
2018-04-09T01:56:02.414Z,21.50
2018-04-09T01:57:02.420Z,24.90
2018-04-09T01:58:02.430Z,25.90
2018-04-09T01:59:02.428Z,24.00
2018-04-09T02:00:02.439Z,26.00
2018-04-09T02:01:02.444Z,25.80
2018-04-09T02:02:02.474Z,23.70
2018-04-09T02:03:02.460Z,21.30
2018-04-09T02:04:02.456Z,23.80
2018-04-09T02:05:02.470Z,23.20
2018-04-09T02:06:02.469Z,25.70
2018-04-09T02:07:02.483Z,34.60
2018-04-09T02:08:02.483Z,29.40
2018-04-09T02:09:02.491Z,27.10
2018-04-09T02:10:02.496Z,23.90
2018-04-09T02:11:02.503Z,26.00
2018-04-09T02:12:02.507Z,27.30
2018-04-09T02:13:02.518Z,29.10
2018-04-09T02:14:02.515Z,29.10
2018-04-09T02:15:02.528Z,27.70
2018-04-09T02:16:02.532Z,27.00
2018-04-09T02:17:02.533Z,28.50
2018-04-09T02:18:02.539Z,28.40
2018-04-09T02:19:02.544Z,26.10
2018-04-09T02:20:02.551Z,26.90
2018-04-09T02:21:02.637Z,23.80
2018-04-09T02:22:02.566Z,25.70
2018-04-09T02:23:02.576Z,27.60
2018-04-09T02:24:02.571Z,24.10
2018-04-09T02:25:02.590Z,23.00
2018-04-09T02:26:02.582Z,24.20
2018-04-09T02:27:02.595Z,25.30
2018-04-09T02:28:02.602Z,24.40
2018-04-09T02:29:02.603Z,23.40
2018-04-09T02:30:02.608Z,24.00
2018-04-09T02:31:02.626Z,25.10
2018-04-09T02:32:02.629Z,24.00
2018-04-09T02:33:02.623Z,26.00
2018-04-09T02:34:02.642Z,28.00
2018-04-09T02:35:02.645Z,25.50
2018-04-09T02:36:02.647Z,28.90
2018-04-09T02:37:02.659Z,24.10
2018-04-09T02:38:02.668Z,25.40
2018-04-09T02:39:02.656Z,25.40
2018-04-09T02:40:02.663Z,26.60
2018-04-09T02:41:02.676Z,24.60
2018-04-09T02:42:02.679Z,21.40
2018-04-09T02:43:02.680Z,38.30
2018-04-09T02:44:02.692Z,31.50
2018-04-09T02:45:02.702Z,34.50
2018-04-09T02:46:02.703Z,29.60
2018-04-09T02:47:02.710Z,25.00
2018-04-09T02:48:02.720Z,31.80
2018-04-09T02:49:02.721Z,28.70
2018-04-09T02:50:02.745Z,26.80
2018-04-09T02:51:02.741Z,26.10
2018-04-09T02:52:02.751Z,30.00
2018-04-09T02:53:02.747Z,29.30
2018-04-09T02:54:02.766Z,30.80
2018-04-09T02:55:02.751Z,33.50
2018-04-09T02:56:02.752Z,28.10
2018-04-09T02:57:02.786Z,27.80
2018-04-09T02:58:02.780Z,25.90
2018-04-09T02:59:02.770Z,29.70
2018-04-09T03:00:02.773Z,28.00
2018-04-09T03:01:02.787Z,31.00
2018-04-09T03:02:02.788Z,31.00
2018-04-09T03:03:02.793Z,26.00
2018-04-09T03:04:02.802Z,27.20
2018-04-09T03:05:02.799Z,27.60
2018-04-09T03:06:02.817Z,32.50
2018-04-09T03:07:02.848Z,30.50
2018-04-09T03:08:02.824Z,28.10
2018-04-09T03:09:02.828Z,29.40
2018-04-09T03:10:02.830Z,29.50
2018-04-09T03:11:02.894Z,30.10
2018-04-09T03:12:02.837Z,25.30
2018-04-09T03:13:02.851Z,24.10
2018-04-09T03:14:02.854Z,25.80
2018-04-09T03:15:02.857Z,29.00
2018-04-09T03:16:02.865Z,27.70
2018-04-09T03:17:02.877Z,26.40
2018-04-09T03:18:02.880Z,32.60
2018-04-09T03:19:02.876Z,27.10
2018-04-09T03:20:02.888Z,24.60
2018-04-09T03:21:02.889Z,45.50
2018-04-09T03:22:02.892Z,32.40
2018-04-09T03:23:02.906Z,32.90
2018-04-09T03:24:02.907Z,24.20
2018-04-09T03:25:02.916Z,29.00
2018-04-09T03:26:02.921Z,27.10
2018-04-09T03:27:02.931Z,28.20
2018-04-09T03:28:02.927Z,31.10
2018-04-09T03:29:02.938Z,28.00
2018-04-09T03:30:02.946Z,23.70
2018-04-09T03:31:02.950Z,25.90
2018-04-09T03:32:02.952Z,26.30
2018-04-09T03:33:02.958Z,28.90
2018-04-09T03:34:02.957Z,25.60
2018-04-09T03:35:06.152Z,28.10
2018-04-09T03:36:04.141Z,28.30
2018-04-09T03:37:05.665Z,30.70
2018-04-09T03:38:05.639Z,37.60
2018-04-09T03:39:02.994Z,36.30
2018-04-09T03:40:02.996Z,33.60
2018-04-09T03:41:02.997Z,35.30
2018-04-09T03:42:03.002Z,34.20
2018-04-09T03:43:03.011Z,31.60
2018-04-09T03:44:03.017Z,28.80
2018-04-09T03:45:03.020Z,36.90
2018-04-09T03:46:03.025Z,30.80
2018-04-09T03:47:03.036Z,29.30
2018-04-09T03:48:03.034Z,36.20
2018-04-09T03:49:03.048Z,35.30
2018-04-09T03:50:03.048Z,31.20
2018-04-09T03:51:03.053Z,28.70
2018-04-09T03:52:03.058Z,28.00
2018-04-09T03:53:03.073Z,25.60
2018-04-09T03:54:03.070Z,27.60
2018-04-09T03:55:03.083Z,30.90
2018-04-09T03:56:03.076Z,29.40
2018-04-09T03:57:03.098Z,27.30
2018-04-09T03:58:03.090Z,32.70
2018-04-09T03:59:03.100Z,25.60
2018-04-09T04:00:03.143Z,35.00
2018-04-09T04:01:03.108Z,30.80
2018-04-09T04:02:03.107Z,28.10
2018-04-09T04:03:03.117Z,30.10
2018-04-09T04:04:03.116Z,29.80
2018-04-09T04:05:03.130Z,29.70
2018-04-09T04:06:03.137Z,29.10
2018-04-09T04:07:03.136Z,31.10
2018-04-09T04:08:03.146Z,27.70
2018-04-09T04:09:03.180Z,31.30
2018-04-09T04:10:03.154Z,27.00
2018-04-09T04:11:03.162Z,32.40
2018-04-09T04:12:03.160Z,27.50
2018-04-09T04:13:03.163Z,28.00
2018-04-09T04:14:03.177Z,36.40
2018-04-09T04:15:03.179Z,32.50
2018-04-09T04:16:03.185Z,34.80
2018-04-09T04:17:03.186Z,28.30
2018-04-09T04:18:03.188Z,30.90
2018-04-09T04:19:03.204Z,34.60
2018-04-09T04:20:03.203Z,32.80
2018-04-09T04:21:03.210Z,36.60
2018-04-09T04:22:03.219Z,34.70
2018-04-09T04:23:03.218Z,32.00
2018-04-09T04:24:03.227Z,30.20
2018-04-09T04:25:03.229Z,36.90
2018-04-09T04:26:03.233Z,33.30
2018-04-09T04:27:03.245Z,32.90
2018-04-09T04:28:03.244Z,29.60
2018-04-09T04:29:03.256Z,32.00
2018-04-09T04:30:03.292Z,32.50
2018-04-09T04:31:03.266Z,34.10
2018-04-09T04:32:03.271Z,29.40
2018-04-09T04:33:03.274Z,32.50
2018-04-09T04:34:03.277Z,40.70
2018-04-09T04:35:03.290Z,28.70
2018-04-09T04:36:03.284Z,31.60
2018-04-09T04:37:03.297Z,32.90
2018-04-09T04:38:03.296Z,34.00
2018-04-09T04:39:03.309Z,35.90
2018-04-09T04:40:03.312Z,36.00
2018-04-09T04:41:03.322Z,43.00
2018-04-09T04:42:03.321Z,28.70
2018-04-09T04:43:03.327Z,32.90
2018-04-09T04:44:03.328Z,28.80
2018-04-09T04:45:03.337Z,33.20
2018-04-09T04:46:03.347Z,29.70
2018-04-09T04:47:03.351Z,30.00
2018-04-09T04:48:03.363Z,35.00
2018-04-09T04:49:03.366Z,40.50
2018-04-09T04:50:03.364Z,32.40
2018-04-09T04:51:03.373Z,36.50
2018-04-09T04:52:03.393Z,31.80
2018-04-09T04:53:03.381Z,39.30
2018-04-09T04:54:03.386Z,32.60
2018-04-09T04:55:03.397Z,32.90
2018-04-09T04:56:03.407Z,32.40
2018-04-09T04:57:03.406Z,31.30
2018-04-09T04:58:03.404Z,31.30
2018-04-09T04:59:03.415Z,35.20
2018-04-09T05:00:03.414Z,31.50
2018-04-09T05:01:03.423Z,30.00
2018-04-09T05:02:03.418Z,36.00
2018-04-09T05:03:03.430Z,34.80
2018-04-09T05:04:03.438Z,33.90
2018-04-09T05:05:03.441Z,32.20
2018-04-09T05:06:03.455Z,34.10
2018-04-09T05:07:03.446Z,37.00
2018-04-09T05:08:03.456Z,32.20
2018-04-09T05:09:03.475Z,28.30
2018-04-09T05:10:03.463Z,33.10
2018-04-09T05:11:03.479Z,30.50
2018-04-09T05:12:03.493Z,46.40
2018-04-09T05:13:03.484Z,42.30
2018-04-09T05:14:03.492Z,35.00
2018-04-09T05:15:03.488Z,34.20
2018-04-09T05:16:03.494Z,31.10
2018-04-09T05:17:03.498Z,31.90
2018-04-09T05:18:03.514Z,30.80
2018-04-09T05:19:03.509Z,34.70
2018-04-09T05:20:03.519Z,35.50
2018-04-09T05:21:03.522Z,38.60
2018-04-09T05:22:03.524Z,35.20
2018-04-09T05:23:03.534Z,29.90
2018-04-09T05:24:03.544Z,32.30
2018-04-09T05:25:03.541Z,32.30
2018-04-09T05:26:03.548Z,32.80
2018-04-09T05:27:03.557Z,35.40
2018-04-09T05:28:03.556Z,35.80
2018-04-09T05:29:03.569Z,31.50
2018-04-09T05:30:03.581Z,30.40
2018-04-09T05:31:21.111Z,51.10
2018-04-09T05:32:21.084Z,35.90
2018-04-09T05:34:14.585Z,33.60
2018-04-09T05:35:14.047Z,29.60
2018-04-09T05:37:07.636Z,32.30
2018-04-09T05:38:07.517Z,37.00
2018-04-09T05:39:07.519Z,32.10
2018-04-09T05:40:07.533Z,31.80
2018-04-09T05:41:07.527Z,36.30
2018-04-09T05:42:07.536Z,33.90
2018-04-09T05:43:07.540Z,34.10
2018-04-09T05:44:07.549Z,31.10
2018-04-09T05:45:07.578Z,37.00
2018-04-09T05:46:07.553Z,32.70
2018-04-09T05:47:07.570Z,31.00
2018-04-09T05:48:07.578Z,31.30
2018-04-09T05:49:07.580Z,35.30
2018-04-09T05:50:07.581Z,33.20
2018-04-09T05:51:07.599Z,31.60
2018-04-09T05:52:07.612Z,37.70
2018-04-09T05:53:07.596Z,34.80
2018-04-09T05:54:07.604Z,29.10
2018-04-09T05:55:07.606Z,31.80
2018-04-09T05:56:07.631Z,38.80
2018-04-09T05:57:07.647Z,35.40
2018-04-09T05:58:07.623Z,38.70
2018-04-09T05:59:07.640Z,37.00
2018-04-09T06:00:07.635Z,41.10
2018-04-09T06:01:07.722Z,34.60
2018-04-09T06:02:07.716Z,36.90
2018-04-09T06:03:07.668Z,31.40
2018-04-09T06:04:07.672Z,34.40
2018-04-09T06:05:07.668Z,37.30
2018-04-09T06:06:07.673Z,34.90
2018-04-09T06:07:07.682Z,37.20
2018-04-09T06:08:07.691Z,39.70
2018-04-09T06:09:07.714Z,39.60
2018-04-09T06:10:07.728Z,39.10
2018-04-09T06:11:07.714Z,37.00
2018-04-09T06:12:07.714Z,35.90
2018-04-09T06:13:07.724Z,35.30
2018-04-09T06:14:07.715Z,35.70
2018-04-09T06:15:07.745Z,37.70
2018-04-09T06:16:07.778Z,40.70
2018-04-09T06:17:07.743Z,38.50
2018-04-09T06:18:07.753Z,34.30
2018-04-09T06:19:07.762Z,35.10
2018-04-09T06:20:07.756Z,36.90
2018-04-09T06:21:07.777Z,35.90
2018-04-09T06:22:07.765Z,34.30
2018-04-09T06:23:07.777Z,46.90
2018-04-09T06:24:07.781Z,38.00
2018-04-09T06:25:07.958Z,40.90
2018-04-09T06:26:07.999Z,29.60
2018-04-09T06:27:07.799Z,35.50
2018-04-09T06:28:07.835Z,39.90
2018-04-09T06:29:07.821Z,36.30
2018-04-09T06:30:07.824Z,40.30
2018-04-09T06:31:07.877Z,31.10
2018-04-09T06:32:07.845Z,34.40
2018-04-09T06:33:07.856Z,34.00
2018-04-09T06:34:07.866Z,35.90
2018-04-09T06:35:07.864Z,31.70
2018-04-09T06:36:07.882Z,39.00
2018-04-09T06:37:07.899Z,30.10
2018-04-09T06:38:07.899Z,35.90
2018-04-09T06:39:07.909Z,37.10
2018-04-09T06:40:07.918Z,33.20
2018-04-09T06:41:07.921Z,33.20
2018-04-09T06:42:07.930Z,35.20
2018-04-09T06:43:07.937Z,34.60
2018-04-09T06:44:07.940Z,42.30
2018-04-09T06:45:07.953Z,33.20
2018-04-09T06:46:07.964Z,39.80
2018-04-09T06:47:07.977Z,35.80
2018-04-09T06:48:07.978Z,39.30
2018-04-09T06:49:07.990Z,33.10
2018-04-09T06:50:08.009Z,38.20
2018-04-09T06:51:08.013Z,38.80
2018-04-09T06:52:08.022Z,32.20
2018-04-09T06:53:08.037Z,32.10
2018-04-09T06:54:08.043Z,37.30
2018-04-09T06:55:08.053Z,29.30
2018-04-09T06:56:08.111Z,34.00
2018-04-09T06:57:08.074Z,32.00
2018-04-09T06:58:08.081Z,33.20
2018-04-09T06:59:08.093Z,34.70
2018-04-09T07:00:08.103Z,31.70
2018-04-09T07:01:08.112Z,31.00
2018-04-09T07:02:08.131Z,33.20
2018-04-09T07:03:08.136Z,32.40
2018-04-09T07:04:08.143Z,36.10
2018-04-09T07:05:08.156Z,35.70
2018-04-09T07:06:08.171Z,34.10
2018-04-09T07:07:08.185Z,33.90
2018-04-09T07:08:08.186Z,36.10
2018-04-09T07:09:08.192Z,33.20
2018-04-09T07:10:08.204Z,35.30
2018-04-09T07:11:08.233Z,41.00
2018-04-09T07:12:08.228Z,37.30
2018-04-09T07:13:08.249Z,34.60
2018-04-09T07:14:08.245Z,33.50
2018-04-09T07:15:08.259Z,33.30
2018-04-09T07:16:08.270Z,33.90
2018-04-09T07:17:08.290Z,33.30
2018-04-09T07:18:08.285Z,34.60
2018-04-09T07:19:08.301Z,35.80
2018-04-09T07:20:08.313Z,33.00
2018-04-09T07:21:08.317Z,32.40
2018-04-09T07:22:08.334Z,32.30
2018-04-09T07:23:08.365Z,36.00
2018-04-09T07:24:08.351Z,31.70
2018-04-09T07:25:08.363Z,36.40
2018-04-09T07:26:08.370Z,35.00
2018-04-09T07:27:08.384Z,32.60
2018-04-09T07:28:08.399Z,33.80
2018-04-09T07:29:08.410Z,36.00
2018-04-09T07:30:08.418Z,35.80
2018-04-09T07:31:08.467Z,35.20
2018-04-09T07:32:08.448Z,35.30
2018-04-09T07:33:08.452Z,33.00
2018-04-09T07:34:08.486Z,36.60
2018-04-09T07:35:08.475Z,35.00
2018-04-09T07:36:08.500Z,33.40
2018-04-09T07:37:08.511Z,36.30
2018-04-09T07:38:08.510Z,30.70
2018-04-09T07:39:08.529Z,37.10
2018-04-09T07:40:08.533Z,35.20
2018-04-09T07:41:08.549Z,36.60
2018-04-09T07:42:08.583Z,35.80
2018-04-09T07:43:08.568Z,35.80
2018-04-09T07:44:08.586Z,36.10
2018-04-09T07:45:08.602Z,37.20
2018-04-09T07:46:08.604Z,39.10
2018-04-09T07:47:08.617Z,36.70
2018-04-09T07:48:08.628Z,36.70
2018-04-09T07:49:08.666Z,37.30
2018-04-09T07:50:08.670Z,41.10
2018-04-09T07:51:08.666Z,37.40
2018-04-09T07:52:08.683Z,37.90
2018-04-09T07:53:08.690Z,39.90
2018-04-09T07:54:08.712Z,36.00
2018-04-09T07:55:08.711Z,37.40
2018-04-09T07:56:08.734Z,36.20
2018-04-09T07:57:08.748Z,35.00
2018-04-09T07:58:08.761Z,40.80
2018-04-09T07:59:08.767Z,37.40
2018-04-09T08:00:08.784Z,38.30
2018-04-09T08:01:08.795Z,38.40
2018-04-09T08:02:08.809Z,38.20
2018-04-09T08:03:08.808Z,40.00
2018-04-09T08:04:08.825Z,52.00
2018-04-09T08:05:08.847Z,40.50
2018-04-09T08:06:08.862Z,47.30
2018-04-09T08:07:08.883Z,42.30
2018-04-09T08:08:08.886Z,38.60
2018-04-09T08:09:08.926Z,41.80
2018-04-09T08:10:08.900Z,38.60
2018-04-09T08:11:08.912Z,35.40
2018-04-09T08:12:08.944Z,36.70
2018-04-09T08:13:09.130Z,39.40
2018-04-09T08:14:08.957Z,40.20
2018-04-09T08:15:09.110Z,39.20
2018-04-09T08:16:08.982Z,37.60
2018-04-09T08:17:09.003Z,42.10
2018-04-09T08:18:09.143Z,40.10
2018-04-09T08:19:09.016Z,41.90
2018-04-09T08:20:09.066Z,40.00
2018-04-09T08:21:09.045Z,41.30
2018-04-09T08:22:09.059Z,48.30
2018-04-09T08:23:09.084Z,42.60
2018-04-09T08:24:09.179Z,41.30
2018-04-09T08:25:09.115Z,39.60
2018-04-09T08:26:09.105Z,40.40
2018-04-09T08:27:09.117Z,37.10
2018-04-09T08:28:09.139Z,43.60
2018-04-09T08:29:09.155Z,44.70
2018-04-09T08:30:09.279Z,39.40
2018-04-09T08:31:09.177Z,41.40
2018-04-09T08:32:09.183Z,40.40
2018-04-09T08:33:09.196Z,41.50
2018-04-09T08:34:09.221Z,39.70
2018-04-09T08:35:09.229Z,43.50
2018-04-09T08:36:09.293Z,45.40
2018-04-09T08:37:09.300Z,44.00
2018-04-09T08:38:09.267Z,39.60
2018-04-09T08:39:09.288Z,39.50
2018-04-09T08:40:09.296Z,42.10
2018-04-09T08:41:09.310Z,39.20
2018-04-09T08:42:09.330Z,42.80
2018-04-09T08:43:09.337Z,42.90
2018-04-09T08:44:09.354Z,41.10
2018-04-09T08:45:09.364Z,41.60
2018-04-09T08:46:09.379Z,47.70
2018-04-09T08:47:09.392Z,42.50
2018-04-09T08:48:09.421Z,46.50
2018-04-09T08:49:09.432Z,40.70
2018-04-09T08:50:09.439Z,42.60
2018-04-09T08:51:09.542Z,41.50
2018-04-09T08:52:09.467Z,41.70
2018-04-09T08:53:09.491Z,40.90
2018-04-09T08:54:09.498Z,42.70
2018-04-09T08:55:09.525Z,44.40
2018-04-09T08:56:09.529Z,47.90
2018-04-09T08:57:09.589Z,47.80
2018-04-09T08:58:09.559Z,47.70
2018-04-09T08:59:09.576Z,45.70
2018-04-09T09:00:09.595Z,47.40
2018-04-09T09:01:09.606Z,46.70
2018-04-09T09:02:09.621Z,46.40
2018-04-09T09:03:09.638Z,47.90
2018-04-09T09:04:09.645Z,50.60
2018-04-09T09:05:09.668Z,46.30
2018-04-09T09:06:09.679Z,51.20
2018-04-09T09:07:09.692Z,50.50
2018-04-09T09:08:09.712Z,51.30
2018-04-09T09:09:09.729Z,51.80
2018-04-09T09:10:09.734Z,48.40
2018-04-09T09:11:09.754Z,54.40
2018-04-09T09:12:09.775Z,52.60
2018-04-09T09:13:09.918Z,46.00
2018-04-09T09:14:09.790Z,53.20
2018-04-09T09:15:09.812Z,52.00
2018-04-09T09:16:09.828Z,54.00
2018-04-09T09:17:09.835Z,54.40
2018-04-09T09:18:09.854Z,48.50
2018-04-09T09:19:09.867Z,50.80
2018-04-09T09:20:09.891Z,54.00
2018-04-09T09:21:09.946Z,50.20
2018-04-09T09:22:09.904Z,49.20
2018-04-09T09:23:09.921Z,50.50
2018-04-09T09:24:09.939Z,57.30
2018-04-09T09:25:09.952Z,54.90
2018-04-09T09:26:09.966Z,56.50
2018-04-09T09:27:09.981Z,60.90
2018-04-09T09:28:09.995Z,59.90
2018-04-09T09:29:10.013Z,155.50
2018-04-09T09:30:10.025Z,369.20
2018-04-09T09:31:10.036Z,161.30
2018-04-09T09:32:10.046Z,74.40
2018-04-09T09:33:10.064Z,54.40
2018-04-09T09:34:10.068Z,64.10
2018-04-09T09:35:10.090Z,53.90
2018-04-09T09:36:10.096Z,60.00
2018-04-09T09:37:10.111Z,58.70
2018-04-09T09:38:10.131Z,59.90
2018-04-09T09:39:10.135Z,62.10
2018-04-09T09:40:10.156Z,53.80
2018-04-09T09:41:10.164Z,60.40
2018-04-09T09:42:10.181Z,51.40
2018-04-09T09:43:10.186Z,52.00
2018-04-09T09:44:10.214Z,57.30
2018-04-09T09:45:10.226Z,53.90
2018-04-09T09:46:10.226Z,72.30
2018-04-09T09:47:10.256Z,92.60
2018-04-09T09:48:10.254Z,56.00
2018-04-09T09:49:10.313Z,63.70
2018-04-09T09:50:10.282Z,57.30
2018-04-09T09:51:10.298Z,64.50
2018-04-09T09:52:10.316Z,58.00
2018-04-09T09:53:10.333Z,51.70
2018-04-09T09:54:10.354Z,53.00
2018-04-09T09:55:10.357Z,52.70
2018-04-09T09:56:10.363Z,54.40
2018-04-09T09:57:10.386Z,57.10
2018-04-09T09:58:10.388Z,50.90
2018-04-09T09:59:10.418Z,57.10
2018-04-09T10:00:10.435Z,47.80
2018-04-09T10:01:10.921Z,51.40
2018-04-09T10:02:10.450Z,67.10
2018-04-09T10:03:10.490Z,48.80
2018-04-09T10:04:10.477Z,50.90
2018-04-09T10:05:10.495Z,49.30
2018-04-09T10:06:10.504Z,53.70
2018-04-09T10:07:10.527Z,48.50
2018-04-09T10:08:10.535Z,46.50
2018-04-09T10:09:10.554Z,47.20
2018-04-09T10:10:10.566Z,49.30
2018-04-09T10:11:10.580Z,54.60
2018-04-09T10:12:10.609Z,47.50
2018-04-09T10:13:10.613Z,47.70
2018-04-09T10:14:10.658Z,46.60
2018-04-09T10:15:10.645Z,52.50
2018-04-09T10:16:10.664Z,47.30
2018-04-09T10:17:10.923Z,46.70
2018-04-09T10:18:10.694Z,50.40
2018-04-09T10:19:10.711Z,47.10
2018-04-09T10:20:10.718Z,47.30
2018-04-09T10:21:10.735Z,45.80
2018-04-09T10:22:10.747Z,48.80
2018-04-09T10:23:10.773Z,48.90
2018-04-09T10:24:10.781Z,46.40
2018-04-09T10:25:10.815Z,47.90
2018-04-09T10:26:10.827Z,47.50
2018-04-09T10:27:10.837Z,48.10
2018-04-09T10:28:10.848Z,46.90
2018-04-09T10:29:10.870Z,47.30
2018-04-09T10:30:10.880Z,46.10
2018-04-09T10:31:10.916Z,46.60
2018-04-09T10:32:10.914Z,46.50
2018-04-09T10:33:10.963Z,45.10
2018-04-09T10:34:10.944Z,47.50
2018-04-09T10:35:10.987Z,53.80
2018-04-09T10:36:10.984Z,47.10
2018-04-09T10:37:11.006Z,45.00
2018-04-09T10:38:11.013Z,44.80
2018-04-09T10:39:11.042Z,46.10
2018-04-09T10:40:11.046Z,46.70
2018-04-09T10:41:11.058Z,48.40
2018-04-09T10:42:11.076Z,47.50
2018-04-09T10:43:11.096Z,46.50
2018-04-09T10:44:11.113Z,51.50
2018-04-09T10:45:11.122Z,46.70
2018-04-09T10:46:11.140Z,47.70
2018-04-09T10:47:11.174Z,46.40
2018-04-09T10:48:11.181Z,49.10
2018-04-09T10:49:11.185Z,49.10
2018-04-09T10:50:11.203Z,47.60
2018-04-09T10:51:11.212Z,47.40
2018-04-09T10:52:11.234Z,46.50
2018-04-09T10:53:11.256Z,47.60
2018-04-09T10:54:11.265Z,50.60
2018-04-09T10:55:11.280Z,45.70
2018-04-09T10:56:11.287Z,49.30
2018-04-09T10:57:11.307Z,46.30
2018-04-09T10:58:11.328Z,47.40
2018-04-09T10:59:11.334Z,46.40
2018-04-09T11:00:11.359Z,44.80
2018-04-09T11:01:11.368Z,44.20
2018-04-09T11:02:11.393Z,44.80
2018-04-09T11:03:11.403Z,46.30
2018-04-09T11:04:11.474Z,45.50
2018-04-09T11:05:11.438Z,43.50
2018-04-09T11:06:11.445Z,46.60
2018-04-09T11:07:11.470Z,47.00
2018-04-09T11:08:11.519Z,46.60
2018-04-09T11:09:11.499Z,49.70
2018-04-09T11:10:11.515Z,47.40
2018-04-09T11:11:11.529Z,45.70
2018-04-09T11:12:11.547Z,46.70
2018-04-09T11:13:11.560Z,47.30
2018-04-09T11:14:11.569Z,52.40
2018-04-09T11:15:11.660Z,47.80
2018-04-09T11:16:11.653Z,48.70
2018-04-09T11:17:11.615Z,48.20
2018-04-09T11:18:11.631Z,48.20
2018-04-09T11:19:11.649Z,48.10
2018-04-09T11:20:11.737Z,48.30
2018-04-09T11:21:11.782Z,55.10
2018-04-09T11:22:12.768Z,51.40
2018-04-09T11:23:11.793Z,48.70
2018-04-09T11:24:11.840Z,48.80
2018-04-09T11:25:11.821Z,48.30
2018-04-09T11:26:11.778Z,49.10
2018-04-09T11:27:11.766Z,48.30
2018-04-09T11:28:11.881Z,46.90
2018-04-09T11:29:11.957Z,46.70
2018-04-09T11:30:11.825Z,47.50
2018-04-09T11:31:11.907Z,51.60
2018-04-09T11:32:12.045Z,48.20
2018-04-09T11:33:11.933Z,48.00
2018-04-09T11:34:11.951Z,46.80
2018-04-09T11:35:11.869Z,48.60
2018-04-09T11:36:11.961Z,47.90
2018-04-09T11:37:12.076Z,48.10
2018-04-09T11:38:11.912Z,49.20
2018-04-09T11:39:12.090Z,49.10
2018-04-09T11:40:11.936Z,48.10
2018-04-09T11:41:12.100Z,49.40
2018-04-09T11:42:11.969Z,48.20
2018-04-09T11:43:12.103Z,50.30
2018-04-09T11:44:12.035Z,50.70
2018-04-09T11:45:12.144Z,48.20
2018-04-09T11:46:12.170Z,49.20
2018-04-09T11:47:12.051Z,49.90
2018-04-09T11:48:12.085Z,49.50
2018-04-09T11:49:12.250Z,50.00
2018-04-09T11:50:12.137Z,50.40
2018-04-09T11:51:12.174Z,51.30
2018-04-09T11:52:12.092Z,50.00
2018-04-09T11:53:12.218Z,52.40
2018-04-09T11:54:12.340Z,51.70
2018-04-09T11:55:12.125Z,50.60
2018-04-09T11:56:12.189Z,51.40
2018-04-09T11:57:12.165Z,50.50
2018-04-09T11:58:12.164Z,51.90
2018-04-09T11:59:12.182Z,51.80
2018-04-09T12:00:12.198Z,50.60
2018-04-09T12:01:12.207Z,50.20
2018-04-09T12:02:12.250Z,53.00
2018-04-09T12:03:12.233Z,49.30
2018-04-09T12:04:12.359Z,50.60
2018-04-09T12:05:12.363Z,49.50
2018-04-09T12:06:12.375Z,53.50
2018-04-09T12:07:12.353Z,50.50
2018-04-09T12:08:12.404Z,50.60
2018-04-09T12:09:12.332Z,51.90
2018-04-09T12:10:12.318Z,49.70
2018-04-09T12:11:12.339Z,63.70
2018-04-09T12:12:12.344Z,51.40
2018-04-09T12:13:12.355Z,52.90
2018-04-09T12:14:12.370Z,49.60
2018-04-09T12:15:12.395Z,51.50
2018-04-09T12:16:12.400Z,51.60
2018-04-09T12:17:12.426Z,50.50
2018-04-09T12:18:12.422Z,50.00
2018-04-09T12:19:12.441Z,49.70
2018-04-09T12:20:12.445Z,53.00
2018-04-09T12:21:12.462Z,49.80
2018-04-09T12:22:12.475Z,52.80
2018-04-09T12:23:12.491Z,52.50
2018-04-09T12:24:12.496Z,51.20
2018-04-09T12:25:12.514Z,54.30
2018-04-09T12:26:12.524Z,51.40
2018-04-09T12:27:12.533Z,55.00
2018-04-09T12:28:12.556Z,54.00
2018-04-09T12:29:12.570Z,60.10
2018-04-09T12:30:12.575Z,52.10
2018-04-09T12:31:12.593Z,52.70
2018-04-09T12:32:12.601Z,53.00
2018-04-09T12:33:12.608Z,52.30
2018-04-09T12:34:12.657Z,55.40
2018-04-09T12:35:12.641Z,52.90
2018-04-09T12:36:12.656Z,53.20
2018-04-09T12:37:12.662Z,52.80
2018-04-09T12:38:12.675Z,51.00
2018-04-09T12:39:12.681Z,51.00
2018-04-09T12:40:12.704Z,52.20
2018-04-09T12:41:12.715Z,55.50
2018-04-09T12:42:12.716Z,51.10
2018-04-09T12:43:12.737Z,56.40
2018-04-09T12:44:12.740Z,52.80
2018-04-09T12:45:12.762Z,56.40
2018-04-09T12:46:12.772Z,51.20
2018-04-09T12:47:12.778Z,51.30
2018-04-09T12:48:12.798Z,51.20
2018-04-09T12:49:12.804Z,53.20
2018-04-09T12:50:12.820Z,51.00
2018-04-09T12:51:12.836Z,52.90
2018-04-09T12:52:12.840Z,51.10
2018-04-09T12:53:12.870Z,50.80
2018-04-09T12:54:12.878Z,52.10
2018-04-09T12:55:12.885Z,51.90
2018-04-09T12:56:12.902Z,52.70
2018-04-09T12:57:12.906Z,55.00
2018-04-09T12:58:12.936Z,54.20
2018-04-09T12:59:12.925Z,55.10
2018-04-09T13:00:12.936Z,53.20
2018-04-09T13:01:12.950Z,51.80
2018-04-09T13:02:12.962Z,51.30